^^
Datos históricos de la estación: Murcia-Puente Tocinos
Diario Informe para Diciembre 25, 2019 Unidades:  Ingés    Métrico   Ambas
Diario Semanal Mensual Anual
  Máxima: Mínima: Promedio:
Temperatura: 70.3 °F 46 °F 55.4 °F
Punto de rocio: 46.9 °F 41.2 °F 44.2 °F
Humedad: 83% 41% 68%
Velocidad viento: 5.9mph 0mph 3.9mph
Racha viento: 10mph - -
Viento- - Sur
Presión: 30.3 in 30.2 in -
Precipitación: 0 in    
 
 
Tabla de datos para Diciembre 25, 2019
Hora Temperatura Punto de rocio Presión Viento Velocidad viento Racha viento Humedad Intensidad lluvia(por hora) Nubes
00:04 53.8 °F 45.7 °F 30.3 in Sur 4.1 mph 6.2 mph 74% 0 in
00:09 53.8 °F 45.7 °F 30.3 in Sur 4 mph 6.9 mph 74% 0 in
00:14 53.8 °F 45.7 °F 30.3 in Sur 4.4 mph 7 mph 74% 0 in
00:19 53.6 °F 45.5 °F 30.3 in Sur 4.7 mph 7.4 mph 74% 0 in
00:24 53.4 °F 45.3 °F 30.3 in Sur 4.7 mph 7 mph 74% 0 in
00:29 53.2 °F 45.1 °F 30.3 in Sur 4.7 mph 7 mph 74.1% 0 in
00:34 53.1 °F 45.3 °F 30.3 in Sur 4.7 mph 7 mph 75% 0 in
00:39 52.9 °F 45.1 °F 30.3 in Sur 4.7 mph 6.9 mph 75% 0 in
00:44 52.9 °F 45.1 °F 30.3 in Sur 4.5 mph 7 mph 75% 0 in
00:49 52.9 °F 45.5 °F 30.3 in SSO 4.3 mph 7.4 mph 76% 0 in
00:54 53.1 °F 45.7 °F 30.3 in SSO 4.8 mph 7 mph 76% 0 in
00:59 53.1 °F 45.5 °F 30.3 in SSO 5.2 mph 7 mph 75.6% 0 in
01:04 53.1 °F 45.3 °F 30.3 in Sur 4.4 mph 6 mph 75.1% 0 in
01:09 53.1 °F 45.3 °F 30.3 in Sur 4 mph 6.2 mph 75% 0 in
01:14 52.7 °F 45.3 °F 30.3 in Sur 4.4 mph 6.2 mph 75.9% 0 in
01:19 52.5 °F 45.1 °F 30.3 in Sur 4.7 mph 6.9 mph 76% 0 in
01:24 52.5 °F 45.3 °F 30.3 in Sur 4.7 mph 7.4 mph 76.6% 0 in
01:29 52.5 °F 45.3 °F 30.3 in Sur 4.7 mph 7 mph 76.2% 0 in
01:34 52.3 °F 45.1 °F 30.3 in SSO 4.3 mph 5.2 mph 76.6% 0 in
01:39 52.3 °F 45.3 °F 30.3 in SSO 4 mph 5.2 mph 77% 0 in
01:44 52.5 °F 45.5 °F 30.3 in SO 3.8 mph 5.9 mph 77% 0 in
01:49 52.5 °F 45.5 °F 30.3 in Sur 3.6 mph 6 mph 76.7% 0 in
01:54 52.3 °F 44.8 °F 30.3 in SSE 3.6 mph 5.2 mph 75.3% 0 in
01:59 52 °F 44.6 °F 30.3 in SSE 3.6 mph 5 mph 75.7% 0 in
02:04 51.6 °F 44.2 °F 30.3 in SSE 3.3 mph 5 mph 76% 0 in
02:09 51.4 °F 44.4 °F 30.3 in Sur 3.1 mph 5 mph 76.7% 0 in
02:14 51.3 °F 44.1 °F 30.3 in SSE 3.1 mph 5.8 mph 76.3% 0 in
02:19 50.9 °F 43.9 °F 30.3 in SSE 3.1 mph 6 mph 76.9% 0 in
02:24 50.5 °F 43.7 °F 30.3 in SSE 3.4 mph 6 mph 77% 0 in
02:29 50.5 °F 43.5 °F 30.3 in SSE 3.6 mph 5.9 mph 77% 0 in
02:34 50.4 °F 43.3 °F 30.3 in SSE 3.6 mph 6.2 mph 77% 0 in
02:39 50 °F 43.3 °F 30.3 in Sur 3.6 mph 6 mph 77.5% 0 in
02:44 49.8 °F 43.2 °F 30.3 in SSE 4 mph 6.2 mph 78% 0 in
02:49 49.5 °F 43 °F 30.3 in SSE 4.3 mph 6 mph 78% 0 in
02:54 49.3 °F 42.8 °F 30.3 in SSE 4.3 mph 6.2 mph 78.3% 0 in
02:59 49.1 °F 43 °F 30.3 in SSE 4.3 mph 6 mph 79% 0 in
03:04 48.9 °F 42.8 °F 30.3 in SSE 4.3 mph 6.9 mph 79% 0 in
03:09 48.9 °F 42.6 °F 30.3 in SSE 4.3 mph 7.4 mph 79% 0 in
03:14 48.7 °F 42.8 °F 30.3 in SSE 4.8 mph 7 mph 80% 0 in
03:19 48.7 °F 42.8 °F 30.3 in SSE 5.2 mph 8.1 mph 80% 0 in
03:24 48.6 °F 42.6 °F 30.3 in SSE 5.2 mph 8 mph 80% 0 in
03:29 48.6 °F 42.6 °F 30.3 in SSE 5.2 mph 7.4 mph 80.4% 0 in
03:34 48.4 °F 42.8 °F 30.3 in Sur 4.9 mph 7.4 mph 81% 0 in
03:39 48.4 °F 42.8 °F 30.3 in SSE 4.7 mph 7 mph 81% 0 in
03:44 48.4 °F 42.8 °F 30.3 in Sur 5 mph 8.1 mph 81% 0 in
03:49 48.6 °F 43 °F 30.3 in Sur 5.2 mph 8.1 mph 81% 0 in
03:54 48.6 °F 43 °F 30.3 in Sur 5.2 mph 8 mph 81% 0 in
03:59 48.7 °F 43.2 °F 30.3 in Sur 5.2 mph 7 mph 81% 0 in
04:04 48.7 °F 43.2 °F 30.3 in Sur 4.6 mph 7 mph 81% 0 in
04:09 48.7 °F 43.3 °F 30.3 in Sur 4.3 mph 6 mph 81% 0 in
04:14 48.9 °F 43.3 °F 30.3 in Sur 4.1 mph 6.2 mph 81% 0 in
04:19 48.9 °F 43.3 °F 30.3 in Sur 4 mph 7.4 mph 81% 0 in
04:24 49.1 °F 43.5 °F 30.3 in Sur 4.4 mph 7 mph 81% 0 in
04:29 49.3 °F 43.7 °F 30.3 in SSO 4.7 mph 7 mph 80.9% 0 in
04:34 49.5 °F 43.5 °F 30.3 in SSO 4.7 mph 7 mph 80% 0 in
04:39 49.6 °F 43.7 °F 30.3 in SSO 4.7 mph 7 mph 80% 0 in
04:44 49.6 °F 43.7 °F 30.3 in SSO 4.3 mph 6 mph 80% 0 in
04:49 49.6 °F 43.7 °F 30.3 in SSO 4 mph 6.4 mph 80% 0 in
04:54 49.6 °F 43.7 °F 30.3 in Sur 4.2 mph 6 mph 80% 0 in
04:59 49.6 °F 43.7 °F 30.2 in Sur 4.3 mph 6 mph 80% 0 in
05:04 49.5 °F 43.5 °F 30.2 in Sur 4.3 mph 6.9 mph 80% 0 in
05:09 49.5 °F 43.5 °F 30.2 in Sur 4.3 mph 7 mph 80% 0 in
05:14 49.5 °F 43.5 °F 30.2 in SSO 4.5 mph 7 mph 80% 0 in
05:19 49.3 °F 43.3 °F 30.2 in Sur 4.7 mph 7 mph 80% 0 in
05:24 49.3 °F 43.3 °F 30.2 in Sur 4.3 mph 6 mph 80% 0 in
05:29 48.9 °F 43.2 °F 30.2 in Sur 4 mph 6 mph 80.3% 0 in
05:34 48.7 °F 43.2 °F 30.2 in Sur 4 mph 6 mph 81% 0 in
05:39 48.6 °F 43 °F 30.2 in SSO 4 mph 6.9 mph 81% 0 in
05:44 48.6 °F 43 °F 30.2 in SSO 4 mph 7 mph 81% 0 in
05:49 48.6 °F 43 °F 30.2 in SSO 4 mph 7 mph 81% 0 in
05:54 48.6 °F 43 °F 30.2 in SSO 4.2 mph 8.1 mph 81% 0 in
05:59 48.4 °F 42.8 °F 30.2 in Sur 4.3 mph 8 mph 81% 0 in
06:04 48.4 °F 42.8 °F 30.2 in Sur 4.6 mph 8.1 mph 81% 0 in
06:09 48 °F 42.4 °F 30.2 in Sur 4.7 mph 8 mph 81% 0 in
06:14 47.8 °F 42.3 °F 30.2 in SSE 5 mph 7 mph 81% 0 in
06:19 47.5 °F 41.9 °F 30.2 in SSE 5.2 mph 7.4 mph 81% 0 in
06:24 47.1 °F 41.7 °F 30.2 in Sur 5.2 mph 8.1 mph 81.7% 0 in
06:29 46.9 °F 41.7 °F 30.2 in Sur 5.2 mph 8.1 mph 82% 0 in
06:34 46.8 °F 41.5 °F 30.2 in Sur 5.3 mph 8.1 mph 82% 0 in
06:39 46.9 °F 41.9 °F 30.2 in Sur 5.4 mph 8.1 mph 82.8% 0 in
06:44 46.9 °F 42.1 °F 30.2 in Sur 5.7 mph 9.2 mph 83% 0 in
06:49 47.3 °F 42.3 °F 30.2 in Sur 5.9 mph 9.2 mph 82.7% 0 in
06:54 47.5 °F 42.3 °F 30.2 in SSO 5.6 mph 9.2 mph 82% 0 in
06:59 47.7 °F 42.4 °F 30.2 in SSO 5.4 mph 9 mph 82% 0 in
07:04 47.8 °F 42.6 °F 30.2 in SSO 4.7 mph 7 mph 82% 0 in
07:09 47.8 °F 42.4 °F 30.2 in SSO 4.3 mph 7 mph 81.2% 0 in
07:14 47.8 °F 42.3 °F 30.2 in SSO 4.1 mph 6.4 mph 81% 0 in
07:19 48 °F 42.4 °F 30.2 in SSO 4 mph 7 mph 81% 0 in
07:24 48 °F 42.6 °F 30.2 in SSO 4.2 mph 6.9 mph 81% 0 in
07:29 48.4 °F 42.6 °F 30.2 in SSO 4.3 mph 7 mph 80.6% 0 in
07:34 48 °F 42.3 °F 30.2 in SSE 4.3 mph 6.2 mph 80% 0 in
07:39 47.7 °F 41.7 °F 30.2 in SSE 4.3 mph 6 mph 80% 0 in
07:44 46.9 °F 41.4 °F 30.2 in SSE 4.3 mph 6.2 mph 80.8% 0 in
07:49 46.4 °F 41.2 °F 30.2 in SSE 4.3 mph 6 mph 81.6% 0 in
07:54 46.2 °F 41.2 °F 30.2 in SSE 3.9 mph 6 mph 82.5% 0 in
07:59 46 °F 41.2 °F 30.2 in SSE 3.6 mph 5 mph 83% 0 in
08:04 46 °F 41.2 °F 30.2 in SSE 3.3 mph 5.2 mph 83% 0 in
08:09 46 °F 41.2 °F 30.3 in SSE 3.1 mph 6.2 mph 83% 0 in
08:14 46 °F 41.2 °F 30.3 in Sur 3.7 mph 6.4 mph 83% 0 in
08:19 46 °F 41.2 °F 30.3 in Sur 4 mph 7 mph 83% 0 in
08:24 46 °F 41.2 °F 30.3 in Sur 4.4 mph 7 mph 83% 0 in
08:29 46 °F 41.2 °F 30.3 in Sur 4.7 mph 6 mph 83% 0 in
08:34 46.2 °F 41.4 °F 30.3 in SSE 4.3 mph 6.9 mph 83% 0 in
08:39 46.2 °F 41.4 °F 30.3 in SSE 4 mph 7 mph 83% 0 in
08:44 46.2 °F 41.4 °F 30.3 in Sur 4.7 mph 8.1 mph 83% 0 in
08:49 46.2 °F 41.4 °F 30.3 in Sur 5.2 mph 8.1 mph 83% 0 in
08:54 46.6 °F 41.5 °F 30.3 in Sur 5.3 mph 8.1 mph 83% 0 in
08:59 46.8 °F 41.7 °F 30.3 in SSE 5.4 mph 8.1 mph 82.8% 0 in
09:04 46.8 °F 41.7 °F 30.3 in Sur 5.3 mph 8 mph 82% 0 in
09:09 46.9 °F 41.7 °F 30.3 in Sur 5.2 mph 8.1 mph 82% 0 in
09:14 47.1 °F 41.9 °F 30.3 in Sur 5.2 mph 8 mph 82% 0 in
09:19 47.3 °F 41.9 °F 30.3 in Sur 5.2 mph 8.5 mph 81% 0 in
09:24 47.7 °F 41.7 °F 30.3 in Sur 5.3 mph 9 mph 80.3% 0 in
09:29 47.8 °F 41.9 °F 30.3 in SSO 5.4 mph 7 mph 80% 0 in
09:34 48 °F 41.9 °F 30.3 in SSO 4.5 mph 6 mph 79.1% 0 in
09:39 48.4 °F 41.9 °F 30.3 in SSO 4 mph 7.4 mph 78.2% 0 in
09:44 48.6 °F 41.7 °F 30.3 in SSO 4 mph 7 mph 77.2% 0 in
09:49 48.7 °F 41.9 °F 30.3 in Sur 4 mph 6 mph 77% 0 in
09:54 49.3 °F 42.1 °F 30.3 in SSE 4 mph 6 mph 76.5% 0 in
09:59 49.6 °F 42.3 °F 30.3 in SSE 4 mph 6 mph 76% 0 in
10:04 50 °F 42.4 °F 30.3 in Sur 4 mph 6.2 mph 75.3% 0 in
10:09 50.2 °F 42.6 °F 30.3 in Sur 4 mph 6 mph 75% 0 in
10:14 50.4 °F 42.6 °F 30.3 in SSE 4 mph 6 mph 75% 0 in
10:19 50.5 °F 42.8 °F 30.3 in SSE 4 mph 6 mph 74.3% 0 in
10:24 50.9 °F 42.8 °F 30.3 in Sur 4 mph 8.5 mph 73.7% 0 in
10:29 51.1 °F 42.8 °F 30.3 in Sur 4 mph 9 mph 73% 0 in
10:34 51.4 °F 43.2 °F 30.3 in Sur 4.4 mph 7 mph 73% 0 in
10:39 51.8 °F 43.2 °F 30.3 in Sur 4.7 mph 8.1 mph 72.4% 0 in
10:44 52.2 °F 43.3 °F 30.3 in Sur 4.7 mph 8.1 mph 71.9% 0 in
10:49 52.3 °F 43.3 °F 30.3 in Sur 4.7 mph 8.1 mph 71.3% 0 in
10:54 52.9 °F 43.5 °F 30.3 in Sur 4.7 mph 7 mph 70.2% 0 in
10:59 53.2 °F 43.5 °F 30.3 in SSO 4.7 mph 8.1 mph 69.2% 0 in
11:04 53.6 °F 43.5 °F 30.3 in SSO 5 mph 8 mph 68.9% 0 in
11:09 54 °F 43.5 °F 30.3 in SSO 5.2 mph 7 mph 68.2% 0 in
11:14 54.1 °F 43.7 °F 30.3 in Sur 5.2 mph 7.4 mph 67.6% 0 in
11:19 54.7 °F 43.9 °F 30.3 in Sur 5.2 mph 8.1 mph 66.9% 0 in
11:24 55 °F 43.9 °F 30.3 in Sur 5.2 mph 8 mph 66.1% 0 in
11:29 55.2 °F 43.9 °F 30.3 in Sur 5.2 mph 7 mph 65.4% 0 in
11:34 55.6 °F 43.9 °F 30.3 in SSO 4.9 mph 7 mph 64.8% 0 in
11:39 55.8 °F 43.9 °F 30.3 in Sur 4.7 mph 7.4 mph 64.2% 0 in
11:44 56.3 °F 43.9 °F 30.3 in Sur 4.5 mph 7 mph 63.3% 0 in
11:49 56.7 °F 43.9 °F 30.3 in SSO 4.3 mph 6.9 mph 62.2% 0 in
11:54 56.7 °F 43.9 °F 30.3 in SSO 4.3 mph 7 mph 62% 0 in
11:59 56.8 °F 43.9 °F 30.3 in SSO 4.3 mph 7 mph 61.7% 0 in
12:04 57 °F 43.7 °F 30.3 in Sur 4.3 mph 7 mph 61.1% 0 in
12:09 57.2 °F 43.9 °F 30.3 in Sur 4.3 mph 7.4 mph 61.2% 0 in
12:14 57.6 °F 43.9 °F 30.3 in Sur 4.3 mph 7 mph 60.3% 0 in
12:19 57.7 °F 44.1 °F 30.3 in SSO 4.3 mph 7 mph 60.2% 0 in
12:24 57.9 °F 43.9 °F 30.3 in SSO 4.3 mph 7 mph 59.5% 0 in
12:29 58.3 °F 43.9 °F 30.3 in SSO 4.3 mph 7 mph 58.8% 0 in
12:34 58.6 °F 43.7 °F 30.3 in SSO 4.1 mph 6 mph 57.6% 0 in
12:39 59 °F 43.5 °F 30.3 in SSO 4 mph 6 mph 56.6% 0 in
12:44 59.4 °F 43.3 °F 30.2 in SSO 3.8 mph 6 mph 55.3% 0 in
12:49 59.5 °F 43.3 °F 30.2 in SSO 3.6 mph 6.2 mph 54.7% 0 in
12:54 59.9 °F 43.2 °F 30.2 in SSO 3.9 mph 6 mph 54.1% 0 in
12:59 60.3 °F 43.3 °F 30.2 in Sur 4 mph 6 mph 53.5% 0 in
13:04 60.6 °F 43.2 °F 30.2 in SSE 3.7 mph 6.2 mph 52.5% 0 in
13:09 61 °F 43.3 °F 30.2 in Sur 3.6 mph 6 mph 52% 0 in
13:14 61.3 °F 43.5 °F 30.2 in Sur 3.9 mph 6 mph 52% 0 in
13:19 61.7 °F 43.7 °F 30.2 in OSO 4 mph 6 mph 51.4% 0 in
13:24 62.1 °F 43.5 °F 30.2 in OSO 3.8 mph 6 mph 51% 0 in
13:29 62.1 °F 43.7 °F 30.2 in SSO 3.6 mph 6 mph 51% 0 in
13:34 62.2 °F 44.1 °F 30.2 in SSO 3.3 mph 6 mph 51.4% 0 in
13:39 62.4 °F 44.1 °F 30.2 in SSO 3.1 mph 6.9 mph 51.1% 0 in
13:44 63 °F 44.2 °F 30.2 in Sur 3.7 mph 7 mph 50.6% 0 in
13:49 63.1 °F 44.2 °F 30.2 in Sur 4 mph 6 mph 50.2% 0 in
13:54 63.5 °F 44.8 °F 30.2 in Sur 3.8 mph 6 mph 50.3% 0 in
13:59 63.9 °F 45 °F 30.2 in SSO 3.6 mph 6.9 mph 50% 0 in
14:04 64 °F 45 °F 30.2 in SSO 3.9 mph 7 mph 50% 0 in
14:09 64.2 °F 45.1 °F 30.2 in SSO 4 mph 7 mph 50% 0 in
14:14 64.6 °F 45.1 °F 30.2 in Sur 4.2 mph 7 mph 49.4% 0 in
14:19 64.8 °F 45.1 °F 30.2 in SSO 4.3 mph 8.1 mph 49% 0 in
14:24 64.9 °F 45.3 °F 30.2 in SSO 4.8 mph 8.1 mph 49% 0 in
14:29 64.9 °F 45.3 °F 30.2 in SSO 5.2 mph 8.1 mph 49.1% 0 in
14:34 65.1 °F 45.5 °F 30.2 in Sur 4.9 mph 8.1 mph 49% 0 in
14:39 65.1 °F 45.5 °F 30.2 in Sur 4.7 mph 7.6 mph 49% 0 in
14:44 65.1 °F 45.5 °F 30.2 in SSO 5 mph 8.1 mph 49% 0 in
14:49 65.3 °F 45.5 °F 30.2 in SSO 5.2 mph 8 mph 48.9% 0 in
14:54 65.5 °F 45.5 °F 30.2 in SSE 4.9 mph 7 mph 48.4% 0 in
14:59 65.8 °F 45.5 °F 30.2 in SSE 4.7 mph 7 mph 48.1% 0 in
15:04 66.2 °F 45.9 °F 30.2 in SSE 4.4 mph 7 mph 47.9% 0 in
15:09 66.4 °F 45.5 °F 30.2 in Sur 4.3 mph 7 mph 47% 0 in
15:14 66.6 °F 45.7 °F 30.2 in SO 3.9 mph 6 mph 46.8% 0 in
15:19 66.7 °F 45.3 °F 30.2 in SO 3.6 mph 6 mph 46.1% 0 in
15:24 66.9 °F 45.5 °F 30.2 in Sur 3.2 mph 5.8 mph 46% 0 in
15:29 67.1 °F 45.5 °F 30.2 in SE 2.9 mph 6 mph 46% 0 in
15:34 67.3 °F 45.9 °F 30.2 in SSE 2.6 mph 5 mph 46% 0 in
15:39 67.6 °F 45.9 °F 30.2 in Sur 2.4 mph 5 mph 45.6% 0 in
15:44 67.8 °F 45.1 °F 30.2 in SO 2.4 mph 5.2 mph 44.1% 0 in
15:49 68.2 °F 45.3 °F 30.2 in SO 2.4 mph 5 mph 44% 0 in
15:54 68.4 °F 45.3 °F 30.2 in SO 2 mph 3 mph 43.5% 0 in
15:59 68.9 °F 45.5 °F 30.2 in SSO 1.8 mph 3.1 mph 43.1% 0 in
16:04 69.3 °F 45.5 °F 30.2 in SSE 1.6 mph 3.5 mph 42.6% 0 in
16:09 69.4 °F 45.5 °F 30.2 in Sur 1.4 mph 4.3 mph 42.3% 0 in
16:14 69.4 °F 46 °F 30.2 in Sur 1.4 mph 5 mph 43% 0 in
16:19 69.4 °F 46 °F 30.2 in SSO 1.4 mph 5 mph 43% 0 in
16:24 69.4 °F 45.9 °F 30.2 in SO 1.8 mph 3.5 mph 42.8% 0 in
16:29 69.4 °F 45.7 °F 30.2 in SSE 2 mph 3.5 mph 42.5% 0 in
16:34 69.4 °F 45.5 °F 30.2 in SE 1.6 mph 3.5 mph 42.3% 0 in
16:39 69.4 °F 45.3 °F 30.2 in SSO 1.4 mph 3.6 mph 42.1% 0 in
16:44 69.6 °F 45.5 °F 30.2 in SO 1.4 mph 4 mph 42% 0 in
16:49 70 °F 45.7 °F 30.2 in SO 1.4 mph 2 mph 41.9% 0 in
16:54 70.2 °F 45.3 °F 30.2 in SO 0.5 mph   41% 0 in
16:59 70.3 °F 45.5 °F 30.2 in Calm   3.1 mph 41% 0 in
17:04 70.2 °F 45.7 °F 30.2 in Calm   4.6 mph 41.3% 0 in
17:09 70.2 °F 45.9 °F 30.2 in Calm   5 mph 42% 0 in
17:14 69.6 °F 45.7 °F 30.2 in OSO 1.2 mph 5 mph 42% 0 in
17:19 69.4 °F 45.9 °F 30.2 in SSO 2 mph 4 mph 42.8% 0 in
17:24 69.1 °F 45.7 °F 30.2 in SSO 2.2 mph 4 mph 43% 0 in
17:29 68.7 °F 45.3 °F 30.2 in SSE 2.4 mph 4.6 mph 43% 0 in
17:34 68.4 °F 45.3 °F 30.2 in SSE 2.7 mph 5.9 mph 43.5% 0 in
17:39 67.6 °F 45.1 °F 30.2 in SSE 2.9 mph 6 mph 44.1% 0 in
17:44 67.3 °F 45.5 °F 30.2 in SSE 3.5 mph 6 mph 45.6% 0 in
17:49 66.4 °F 45.7 °F 30.2 in SSE 4 mph 6.2 mph 47.2% 0 in
17:54 65.8 °F 45.5 °F 30.2 in Sur 4.2 mph 6.2 mph 47.9% 0 in
17:59 65.3 °F 45.5 °F 30.2 in Sur 4.3 mph 6.2 mph 48.9% 0 in
18:04 64.9 °F 45.7 °F 30.2 in Sur 4.1 mph 6 mph 49.8% 0 in
18:09 64.8 °F 45.9 °F 30.2 in SSE 4 mph 5 mph 50.4% 0 in
18:14 64.4 °F 45.9 °F 30.2 in SE 3.3 mph 5 mph 51.2% 0 in
18:19 64 °F 46.2 °F 30.2 in SE 2.9 mph 5 mph 52.1% 0 in
18:24 63.7 °F 46.2 °F 30.2 in ESE 2.9 mph 5 mph 53% 0 in
18:29 63.1 °F 46 °F 30.2 in SE 2.9 mph 5 mph 53.8% 0 in
18:34 62.6 °F 45.7 °F 30.2 in SE 2.9 mph 5 mph 54% 0 in
18:39 62.1 °F 45.7 °F 30.2 in SE 2.9 mph 5.8 mph 54.9% 0 in
18:44 61.7 °F 45.7 °F 30.2 in SE 3.3 mph 6 mph 55.8% 0 in
18:49 61.5 °F 45.9 °F 30.2 in SE 3.6 mph 5.2 mph 56.3% 0 in
18:54 61.3 °F 46 °F 30.2 in SE 3.3 mph 5 mph 57% 0 in
18:59 61.3 °F 46 °F 30.2 in SE 3.1 mph 5 mph 57% 0 in
19:04 61.2 °F 46 °F 30.2 in SE 2.2 mph 3 mph 57.4% 0 in
19:09 60.8 °F 46 °F 30.2 in Sur 1.8 mph 3.5 mph 58% 0 in
19:14 60.4 °F 46 °F 30.2 in SSO 1.6 mph 3.5 mph 58.8% 0 in
19:19 60.3 °F 46 °F 30.2 in SSO 1.4 mph 3.5 mph 59.5% 0 in
19:24 60.1 °F 46 °F 30.2 in SSO 1.6 mph 3.1 mph 60% 0 in
19:29 59.9 °F 46 °F 30.2 in SSO 1.8 mph 3 mph 60% 0 in
19:34 59.7 °F 46.2 °F 30.2 in SSO 0.7 mph   60.8% 0 in
19:39 59.5 °F 46.2 °F 30.2 in Calm     61.1% 0 in
19:44 59.4 °F 46.4 °F 30.2 in Calm     62% 0 in
19:49 59.2 °F 46.2 °F 30.2 in Calm     62% 0 in
19:54 58.8 °F 46.2 °F 30.2 in Calm     62.8% 0 in
19:59 58.6 °F 46.4 °F 30.2 in Calm     63.5% 0 in
20:04 58.6 °F 46.4 °F 30.2 in Calm     64% 0 in
20:09 58.5 °F 46.6 °F 30.2 in Calm     64.7% 0 in
20:14 57.9 °F 46.4 °F 30.2 in Calm   3.6 mph 65% 0 in
20:19 57.7 °F 46.6 °F 30.2 in Calm   4.7 mph 66% 0 in
20:24 57.7 °F 46.6 °F 30.2 in SSO 1.8 mph 5.9 mph 66% 0 in
20:29 57.9 °F 46.6 °F 30.2 in Sur 2.9 mph 6 mph 66% 0 in
20:34 57.7 °F 46.6 °F 30.2 in Sur 3 mph 6 mph 66% 0 in
20:39 57.7 °F 46.8 °F 30.2 in Sur 3.1 mph 4.6 mph 66.5% 0 in
20:44 57.7 °F 46.9 °F 30.2 in Sur 3 mph 5 mph 67% 0 in
20:49 57.6 °F 46.8 °F 30.2 in Sur 2.9 mph 5 mph 67.4% 0 in
20:54 57 °F 46.6 °F 30.2 in Sur 3 mph 5.2 mph 68% 0 in
20:59 56.7 °F 46.6 °F 30.2 in SSE 3.1 mph 5.8 mph 68.9% 0 in
21:04 56.3 °F 46.4 °F 30.2 in SE 3.4 mph 6.4 mph 69.1% 0 in
21:09 55.8 °F 46.2 °F 30.2 in SSE 3.6 mph 7.4 mph 70.1% 0 in
21:14 55 °F 46 °F 30.2 in SSE 4 mph 7 mph 71.6% 0 in
21:19 54.3 °F 45.9 °F 30.2 in SSE 4.3 mph 7 mph 72.8% 0 in
21:24 53.8 °F 45.9 °F 30.2 in SSE 4.9 mph 8.1 mph 74.2% 0 in
21:29 53.4 °F 45.7 °F 30.2 in SSE 5.2 mph 8 mph 75% 0 in
21:34 53.2 °F 45.9 °F 30.2 in SSE 4.9 mph 6 mph 75.9% 0 in
21:39 53.1 °F 45.9 °F 30.2 in Sur 4.7 mph 7.4 mph 76.1% 0 in
21:44 53.2 °F 46 °F 30.2 in SSO 4.3 mph 7 mph 76.3% 0 in
21:49 53.8 °F 46.2 °F 30.2 in SO 4 mph 6.9 mph 75.7% 0 in
21:54 54.3 °F 46.4 °F 30.2 in SSO 4.4 mph 8.1 mph 74.5% 0 in
21:59 55 °F 46.6 °F 30.2 in SSO 4.7 mph 9 mph 73% 0 in
22:04 55.2 °F 46.2 °F 30.2 in SO 5.5 mph 9 mph 72% 0 in
22:09 55.2 °F 46 °F 30.2 in SSO 5.9 mph 8.7 mph 71.4% 0 in
22:14 55 °F 45.9 °F 30.2 in SSO 5.9 mph 9.7 mph 71% 0 in
22:19 54.9 °F 45.9 °F 30.2 in SSO 5.9 mph 10 mph 71.4% 0 in
22:24 54.7 °F 45.9 °F 30.2 in SSO 5.6 mph 8 mph 72% 0 in
22:29 54.7 °F 45.7 °F 30.2 in Sur 5.4 mph 6 mph 72% 0 in
22:34 54.3 °F 45.5 °F 30.2 in Sur 4 mph 6 mph 72.1% 0 in
22:39 54.1 °F 45.7 °F 30.2 in Sur 3.1 mph 6.9 mph 73% 0 in
22:44 54 °F 45.5 °F 30.2 in SSO 3.9 mph 7 mph 73% 0 in
22:49 54 °F 45.5 °F 30.2 in Sur 4.3 mph 7 mph 73% 0 in
22:54 53.8 °F 45.3 °F 30.2 in Sur 4.3 mph 7 mph 73% 0 in
22:59 53.4 °F 45.1 °F 30.2 in Sur 4.3 mph 6 mph 73.1% 0 in
23:04 53.4 °F 45.3 °F 30.2 in Sur 4.1 mph 6.2 mph 74% 0 in
23:09 53.2 °F 45.1 °F 30.2 in Sur 4 mph 6 mph 74% 0 in
23:14 53.1 °F 45 °F 30.2 in SSE 3.8 mph 6.2 mph 74% 0 in
23:19 52.7 °F 45 °F 30.2 in Sur 3.6 mph 6.9 mph 75% 0 in
23:24 52.5 °F 45 °F 30.2 in Sur 4 mph 7 mph 75.5% 0 in
23:29 52.5 °F 45.1 °F 30.2 in Sur 4.3 mph 7.4 mph 76% 0 in
23:34 52.5 °F 45.1 °F 30.2 in Sur 4.9 mph 7.4 mph 75.8% 0 in
23:39 52.3 °F 44.6 °F 30.2 in Sur 5.2 mph 7.4 mph 75% 0 in
23:44 52.3 °F 44.6 °F 30.2 in Sur 5.2 mph 8.5 mph 75% 0 in
23:49 52.2 °F 44.4 °F 30.2 in Sur 5.2 mph 9 mph 75% 0 in
23:54 52.2 °F 44.4 °F 30.2 in SSO 5.2 mph 8.7 mph 75% 0 in
23:59 52.2 °F 44.4 °F 30.2 in SSO 5.2 mph 9.2 mph 75% 0 in
Murcia-Puente Tocinos, España
Compliments of Weather Underground - 3 mb

La estación de MeteoMurcia.com, publica sus datos en los siguientes proyectos:

Weather Underground PWS IMURCIAP2 Meteoclimatic www.awekas.at

W3Counter
Web Analytics